EIWF

Waterford Airport

Waterford, Ireland
METAR EIWF 212030Z 16006KT 9999 FEW015 BKN039 06/04 Q1025
Observed Flight Rules
Feb-21 @ 20:30 UTC (8 hours ago) Visual Flight Rules
Wind Visibility Clouds
160° at 6 knots 10,000+ meters
  • Few at 1,500' AGL
  • Broken at 3,900' AGL
Temperatures Readings
Current 6°C / 43°F
Dewpoint 4°C / 39°F
Humidity 87%
Altimeter 30.27" Hg
Pressure 1025 hPa
Elevation 36
METAR EIWF 212030Z 16006KT 9999 FEW015 BKN039 06/04 Q1025
Observed Flight Rules
Feb-21 @ 20:30 UTC
(8 hours ago)
VFR
Wind Visibility
160° at 6 knots 10,000+ meters
Clouds
  • Few at 1,500' AGL
  • Broken at 3,900' AGL
Temperature Dewpoint
6°C / 43°F 4°C / 39°F
Humidity Altimeter Pressure
87% 30.27" Hg 1025 hPa